Terminal Aerodrome Forecast
Issued by NWS

Home | Current Version | Previous Version | Text Only | Print | Product List | Glossary Off
Versions: 1 2 3 4 5 6 7 8 9 10 11 12 13 14 15 16 17 18 19 20 21 22 23

000
FTUS43 KGRB 201642 AAA
TAFRHI
TAF AMD
KRHI 201642Z 2017/2112 08005KT 2SM -RA BR BKN018 OVC050
      TEMPO 2017/2020 1SM -RA BR BKN003
     FM202000 VRB03KT 3SM -DZ BR OVC006
     FM210000 10004KT 1SM -DZ BR OVC003
     FM210600 10005KT 1/2SM -DZ FG OVC002=

USA.gov is the U.S. government's official web portal to all federal, state and local government web resources and services.